NCAR-RAP Real-Time Weather Data

Output produced by METARs form (14 October 2019  23:46 UTC)
found at http://weather.rap.ucar.edu/surface/
 
KWMC 142256Z AUTO 24009KT 10SM CLR 21/M14 A3003 RMK AO2 SLP158 T02111144